Deutschnofen Obereggen
31.08.2026, 16:10















40 Stazions meteo
| Favoric | Stazion | Autëza | Data - ëura |
t (°C) |
rH (%) |
dd |
ff (km/h) |
bb (km/h) |
hs (cm) |
|---|---|---|---|---|---|---|---|---|---|
| Deutschnofen Obereggen | 2123 m | 31.08.2026, 16:10 | 19.1 | 59 | SV(234°) | 2.5 | 10.4 | 10 | |
| Graun Elferspitze | 2922 m | 31.08.2026, 16:10 | 9.1 | 72 | SO(135°) | 20.2 | 26.3 | - | |
| Graun Schöneben | 2037 m | 31.08.2026, 16:10 | 16.2 | 43 | SO(137°) | 4.7 | 15.1 | 2 | |
| Gsies Pfinnalm | 2152 m | 31.08.2026, 16:10 | 16.3 | 64 | NO(65°) | 5.8 | 10.4 | 12 | |
| Gsies Regelspitze | 2741 m | 31.08.2026, 14:30 | 10.2 | 85 | SV(230°) | 1.1 | 5.8 | - | |
| Jaufenkamm | 2145 m | 31.08.2026, 16:10 | 15.4 | 73 | SV(221°) | 34.9 | 41.8 | - | |
| Ladurns | 1959 m | 31.08.2026, 16:10 | 17.2 | 60 | NO(24.9°) | 2.2 | 10.1 | 1 | |
| Lungiarü Kreuzkofeljoch | 2295 m | 31.08.2026, 16:10 | 14.1 | 77 | V(264°) | 6.5 | 13.0 | 15 | |
| Macaion | 1860 m | 31.08.2026, 16:15 | 18.9 | 64 | SV(218.2°) | 12.2 | 21.6 | 0 | |
| Melag Pratznerberg | 2420 m | 31.08.2026, 16:10 | 15.3 | 49 | SV(205°) | 16.6 | 24.5 | 5 | |
| Pens Tramintal | 2127 m | 31.08.2026, 16:10 | 17.0 | 51 | SV(246°) | 7.9 | 19.4 | -2 | |
| Pfelders Grünboden | 2011 m | 31.08.2026, 16:10 | 18.0 | 59 | NW(307°) | 2.9 | 5.8 | -2 | |
| Pfelders Rauhjoch | 2911 m | 31.08.2026, 16:10 | 7.3 | 100 | SO(141°) | 10.4 | 17.6 | - | |
| Pfunders Dannelspitz | 2804 m | 31.08.2026, 16:10 | 10.7 | 81 | O(105°) | 5.4 | 9.7 | - | |
| Pfunders Stutzenalm | 2045 m | 31.08.2026, 16:10 | 16.5 | 56 | O(70°) | 1.8 | 4.0 | 2 | |
| Plose | 2477 m | 31.08.2026, 16:10 | 13.2 | 76 | SV(233.9°) | 12.6 | 30.6 | - | |
| Prags Rossalm | 2345 m | 31.08.2026, 16:10 | 13.3 | 69 | SV(219°) | 15.5 | 24.8 | 1 | |
| Predoi Malga Merbe | 2002 m | 31.08.2026, 16:10 | 17.4 | 52 | SV(219°) | 4.3 | 12.2 | 2 | |
| Prettau Lengspitze | 3104 m | 31.08.2026, 16:10 | 6.7 | 99 | SV(241°) | 3.6 | 8.6 | - | |
| Proveis Samerberg | 2144 m | 31.08.2026, 16:10 | 14.3 | 74 | SO(156°) | 9.0 | 16.9 | 1 | |
| Ratschings Wasserfaller Alm | 1904 m | 31.08.2026, 16:10 | 17.3 | 65 | SV(227°) | 9.4 | 20.2 | -3 | |
| Rein i.T. Tristenboden | 2445 m | 31.08.2026, 16:10 | 13.3 | 62 | SO(123°) | 6.8 | 13.3 | 2 | |
| Rittner Horn | 2261 m | 31.08.2026, 16:10 | 13.7 | 69 | SV(225°) | 23.0 | 31.3 | - | |
| Schleis Kloangruebes | 2459 m | 31.08.2026, 16:10 | 13.5 | 62 | SO(117°) | 14.0 | 28.8 | 2 | |
| Schnals Finail | 1950 m | 31.08.2026, 16:10 | 16.5 | 66 | - | - | - | 32 | |
| Schnals Grawand | 3192 m | 31.08.2026, 16:10 | 7.9 | 90 | NO(64°) | 6.1 | 15.1 | - | |
| Schnals Teufelsegg | 3033 m | 31.08.2026, 16:10 | 7.0 | 99 | - | - | - | 4 | |
| Seiser Alm Zallinger | 2050 m | 31.08.2026, 16:15 | 17.6 | 62 | V(254.7°) | 10.8 | 23.8 | 7 | |
| Sexten Rotwandwiesen | 1906 m | 31.08.2026, 16:10 | 17.9 | 54 | N(7°) | 5.0 | 11.2 | 4 | |
| Signalgipfel Wilder Freiger | 3389 m | 31.08.2026, 16:10 | 4.2 | 100 | S(183°) | 11.2 | 21.6 | - | |
| Sulden Madritsch | 2825 m | 31.08.2026, 16:10 | 11.1 | 54 | SV(220°) | 5.4 | 16.9 | 1 | |
| Sulden Schöntaufspitze | 3326 m | 31.08.2026, 16:10 | 7.8 | 65 | S(201°) | 8.6 | 21.2 | - | |
| Timmelsalm | 2231 m | 31.08.2026, 16:10 | 14.2 | 75 | SV(245°) | 5.8 | 13.0 | 3 | |
| Toblach Hochebenkofel | 2901 m | 31.08.2026, 16:00 | 9.9 | 82 | S(181.2°) | 4.0 | 12.2 | - | |
| Trafoi Zaufenkofel | 2485 m | 31.08.2026, 16:10 | 15.7 | 54 | V(253°) | 12.2 | 25.6 | - | |
| Ulten Rossbänke | 2299 m | 31.08.2026, 16:00 | 15.0 | 62 | S(200°) | 13.7 | 21.6 | -4 | |
| Ulten Weißbrunnspitz | 3252 m | 31.08.2026, 16:00 | 7.5 | 88 | SO(121°) | 5.4 | 15.8 | - | |
| Val Badia - Piz La Ila | 1997 m | 31.08.2026, 16:10 | 18.5 | 54 | V(287°) | 1.8 | 8.3 | 1 | |
| Val Badia Piz Pisciadù | 2981 m | 31.08.2026, 16:10 | 9.2 | 89 | S(195°) | 4.3 | 21.2 | - | |
| Weissenbach Fadner Alm | 2154 m | 31.08.2026, 16:10 | 17.5 | 47 | V(286°) | 6.8 | 19.4 | 0 |
Lijënda di dac muserei:
t:Temperatura dl'aria (°C)
rH:Tume relatif (%)
dd:Direzion dl vënt
ff:Slune mesan dl vënt (km/h)
bb:Majer slune dl vënt (km/h)
hs:Autëza dla nëif (cm)
sd:Dureda dl surëdl (h)
EG:Raiazion dl surëdl (W/m²)